createdAt,value
2023-08-11T00:01:26.358Z,99.90
2023-08-11T00:03:53.658Z,99.90
2023-08-11T00:06:20.825Z,99.90
2023-08-11T00:08:47.868Z,99.90
2023-08-11T00:11:14.883Z,99.90
2023-08-11T00:13:42.795Z,99.90
2023-08-11T00:16:11.594Z,99.90
2023-08-11T00:18:39.294Z,99.90
2023-08-11T00:21:07.072Z,99.90
2023-08-11T00:23:34.243Z,99.90
2023-08-11T00:26:01.518Z,99.90
2023-08-11T00:28:29.212Z,99.90
2023-08-11T00:30:56.684Z,99.90
2023-08-11T00:33:24.168Z,99.90
2023-08-11T00:35:51.479Z,99.90
2023-08-11T00:38:18.607Z,99.90
2023-08-11T00:40:45.805Z,99.90
2023-08-11T00:43:14.310Z,99.90
2023-08-11T00:45:48.888Z,99.90
2023-08-11T00:48:16.363Z,99.90
2023-08-11T00:50:44.790Z,99.90
2023-08-11T00:53:12.531Z,99.90
2023-08-11T00:55:40.501Z,99.90
2023-08-11T00:58:07.826Z,99.90
2023-08-11T01:00:37.596Z,99.90
2023-08-11T01:03:05.529Z,99.90
2023-08-11T01:05:40.393Z,99.90
2023-08-11T01:08:21.263Z,99.90
2023-08-11T01:11:03.309Z,99.90
2023-08-11T01:13:35.600Z,99.90
2023-08-11T01:16:05.812Z,99.90
2023-08-11T01:18:34.788Z,99.90
2023-08-11T01:21:07.321Z,99.90
2023-08-11T01:23:35.628Z,99.90
2023-08-11T01:26:03.759Z,99.90
2023-08-11T01:28:31.180Z,99.90
2023-08-11T01:30:58.315Z,99.90
2023-08-11T01:33:25.436Z,99.90
2023-08-11T01:35:52.828Z,99.90
2023-08-11T01:38:19.969Z,99.90
2023-08-11T01:40:47.089Z,99.90
2023-08-11T01:43:16.085Z,99.90
2023-08-11T01:45:44.677Z,99.90
2023-08-11T01:48:12.940Z,99.90
2023-08-11T01:50:40.270Z,99.90
2023-08-11T01:53:10.118Z,99.90
2023-08-11T01:55:37.530Z,99.90
2023-08-11T01:58:05.152Z,99.90
2023-08-11T02:00:32.469Z,99.90
2023-08-11T02:03:00.005Z,99.90
2023-08-11T02:05:28.162Z,99.90
2023-08-11T02:07:57.095Z,99.90
2023-08-11T02:10:24.772Z,99.90
2023-08-11T02:12:52.260Z,99.90
2023-08-11T02:15:20.252Z,99.90
2023-08-11T02:17:48.853Z,99.90
2023-08-11T02:20:24.125Z,99.90
2023-08-11T02:22:53.167Z,99.90
2023-08-11T02:25:20.854Z,99.90
2023-08-11T02:27:48.556Z,99.90
2023-08-11T02:30:16.344Z,99.90
2023-08-11T02:32:47.112Z,99.90
2023-08-11T02:35:18.788Z,99.90
2023-08-11T02:37:46.641Z,99.90
2023-08-11T02:40:14.061Z,99.90
2023-08-11T02:43:03.508Z,99.90
2023-08-11T02:45:31.822Z,99.90
2023-08-11T02:47:59.012Z,99.90
2023-08-11T02:50:28.831Z,99.90
2023-08-11T02:52:56.118Z,99.90
2023-08-11T02:55:23.502Z,99.90
2023-08-11T02:57:50.706Z,99.90
2023-08-11T03:00:19.182Z,99.90
2023-08-11T03:02:49.702Z,99.90
2023-08-11T03:05:18.728Z,99.90
2023-08-11T03:07:50.206Z,99.90
2023-08-11T03:10:17.792Z,99.90
2023-08-11T03:12:45.376Z,99.90
2023-08-11T03:15:13.040Z,99.90
2023-08-11T03:17:40.280Z,99.90
2023-08-11T03:20:14.314Z,99.90
2023-08-11T03:22:46.125Z,99.90
2023-08-11T03:25:16.746Z,99.90
2023-08-11T03:27:44.824Z,99.90
2023-08-11T03:30:19.948Z,99.90
2023-08-11T03:32:51.118Z,99.90
2023-08-11T03:35:20.246Z,99.90
2023-08-11T03:37:50.118Z,99.90
2023-08-11T03:40:18.405Z,99.90
2023-08-11T03:42:55.671Z,99.90
2023-08-11T03:45:23.333Z,99.90
2023-08-11T03:47:50.608Z,99.90
2023-08-11T03:50:22.253Z,99.90
2023-08-11T03:52:49.883Z,99.90
2023-08-11T03:55:17.176Z,99.90
2023-08-11T03:57:47.117Z,99.90
2023-08-11T04:00:17.953Z,99.90
2023-08-11T04:02:51.742Z,99.90
2023-08-11T04:05:19.903Z,99.90
2023-08-11T04:07:47.032Z,99.90
2023-08-11T04:10:16.571Z,99.90
2023-08-11T04:12:44.218Z,99.90
2023-08-11T04:15:11.588Z,99.90
2023-08-11T04:17:38.653Z,99.90
2023-08-11T04:20:14.378Z,99.90
2023-08-11T04:22:42.267Z,99.90
2023-08-11T04:25:12.055Z,99.90
2023-08-11T04:27:45.288Z,99.90
2023-08-11T04:30:13.811Z,99.90
2023-08-11T04:32:44.858Z,99.90
2023-08-11T04:35:12.641Z,99.90
2023-08-11T04:37:43.163Z,99.90
2023-08-11T04:40:15.271Z,99.90
2023-08-11T04:42:44.948Z,99.90
2023-08-11T04:45:17.579Z,99.90
2023-08-11T04:47:46.440Z,99.90
2023-08-11T04:50:17.826Z,70.90
2023-08-11T04:52:47.231Z,62.10
2023-08-11T04:55:14.698Z,63.70
2023-08-11T04:57:41.801Z,57.70
2023-08-11T05:00:16.076Z,57.10
2023-08-11T05:02:43.488Z,55.50
2023-08-11T05:05:11.414Z,56.80
2023-08-11T05:07:39.108Z,56.60
2023-08-11T05:10:06.867Z,48.00
2023-08-11T05:12:34.943Z,48.30
2023-08-11T05:15:02.295Z,50.40
2023-08-11T05:17:30.154Z,47.80
2023-08-11T05:19:57.906Z,47.20
2023-08-11T05:22:25.471Z,46.70
2023-08-11T05:24:52.487Z,45.60
2023-08-11T05:27:19.550Z,45.40
2023-08-11T05:29:48.723Z,44.40
2023-08-11T05:32:16.089Z,42.10
2023-08-11T05:34:43.692Z,43.40
2023-08-11T05:37:13.923Z,41.00
2023-08-11T05:39:41.095Z,40.70
2023-08-11T05:42:09.256Z,41.80
2023-08-11T05:44:37.849Z,39.80
2023-08-11T05:47:07.534Z,39.40
2023-08-11T05:49:34.887Z,40.40
2023-08-11T05:52:02.057Z,41.40
2023-08-11T05:54:29.037Z,42.10
2023-08-11T05:56:56.135Z,41.90
2023-08-11T05:59:23.512Z,40.20
2023-08-11T06:01:51.342Z,39.10
2023-08-11T06:04:18.633Z,38.00
2023-08-11T06:06:45.855Z,37.60
2023-08-11T06:09:13.002Z,37.90
2023-08-11T06:11:40.538Z,37.40
2023-08-11T06:14:07.900Z,37.50
2023-08-11T06:16:35.152Z,37.20
2023-08-11T06:19:02.296Z,36.60
2023-08-11T06:21:29.335Z,36.50
2023-08-11T06:23:56.373Z,36.20
2023-08-11T06:26:23.859Z,36.50
2023-08-11T06:29:11.298Z,36.90
2023-08-11T06:31:38.458Z,36.10
2023-08-11T06:34:05.489Z,37.00
2023-08-11T06:36:32.545Z,36.10
2023-08-11T06:38:59.608Z,36.80
2023-08-11T06:41:26.700Z,36.80
2023-08-11T06:43:55.275Z,37.80
2023-08-11T06:46:22.516Z,38.60
2023-08-11T06:48:49.679Z,39.00
2023-08-11T06:51:16.815Z,38.40
2023-08-11T06:53:44.021Z,39.00
2023-08-11T06:56:11.730Z,40.20
2023-08-11T06:58:39.010Z,40.10
2023-08-11T07:01:06.121Z,39.20
2023-08-11T07:03:34.822Z,39.20
2023-08-11T07:06:04.637Z,40.00
2023-08-11T07:08:31.997Z,38.70
2023-08-11T07:10:59.076Z,39.00
2023-08-11T07:13:26.205Z,38.30
2023-08-11T07:15:56.498Z,39.90
2023-08-11T07:18:24.330Z,41.90
2023-08-11T07:20:51.418Z,42.60
2023-08-11T07:23:18.719Z,43.00
2023-08-11T07:25:48.783Z,43.20
2023-08-11T07:28:15.857Z,44.20
2023-08-11T07:30:43.099Z,45.00
2023-08-11T07:33:10.269Z,47.20
2023-08-11T07:35:37.317Z,46.80
2023-08-11T07:38:14.951Z,48.10
2023-08-11T07:40:42.141Z,48.80
2023-08-11T07:43:09.444Z,51.20
2023-08-11T07:45:36.538Z,52.50
2023-08-11T07:48:03.785Z,53.60
2023-08-11T07:50:31.596Z,54.30
2023-08-11T07:52:59.935Z,55.00
2023-08-11T07:55:27.181Z,54.90
2023-08-11T07:57:54.587Z,54.90
2023-08-11T08:00:26.324Z,54.90
2023-08-11T08:02:57.172Z,56.00
2023-08-11T08:05:24.486Z,56.50
2023-08-11T08:07:54.322Z,56.00
2023-08-11T08:10:21.635Z,57.20
2023-08-11T08:12:48.782Z,54.20
2023-08-11T08:15:18.467Z,55.80
2023-08-11T08:17:46.044Z,56.20
2023-08-11T08:20:14.980Z,56.40
2023-08-11T08:22:42.750Z,55.80
2023-08-11T08:25:10.468Z,54.20
2023-08-11T08:27:40.212Z,54.20
2023-08-11T08:30:11.768Z,55.40
2023-08-11T08:32:40.386Z,55.40
2023-08-11T08:35:08.757Z,57.30
2023-08-11T08:37:36.105Z,56.30
2023-08-11T08:40:04.386Z,57.30
2023-08-11T08:42:32.416Z,54.60
2023-08-11T08:45:00.174Z,54.40
2023-08-11T08:47:28.056Z,56.00
2023-08-11T08:49:57.364Z,56.30
2023-08-11T08:52:24.906Z,53.90
2023-08-11T08:54:52.623Z,54.80
2023-08-11T08:57:21.947Z,55.00
2023-08-11T08:59:49.315Z,55.70
2023-08-11T09:02:17.600Z,54.10
2023-08-11T09:04:46.810Z,53.50
2023-08-11T09:07:16.003Z,53.00
2023-08-11T09:09:44.065Z,53.90
2023-08-11T09:12:11.585Z,53.60
2023-08-11T09:14:42.169Z,52.90
2023-08-11T09:17:09.818Z,53.00
2023-08-11T09:19:38.294Z,51.50
2023-08-11T09:22:14.467Z,52.60
2023-08-11T09:24:42.187Z,53.20
2023-08-11T09:27:09.205Z,51.50
2023-08-11T09:29:37.542Z,52.90
2023-08-11T09:32:05.838Z,53.60
2023-08-11T09:34:35.991Z,53.50
2023-08-11T09:37:03.097Z,52.60
2023-08-11T09:39:30.754Z,52.80
2023-08-11T09:41:58.022Z,52.20
2023-08-11T09:44:25.190Z,52.00
2023-08-11T09:46:53.153Z,51.00
2023-08-11T09:49:20.427Z,52.50
2023-08-11T09:51:49.939Z,52.40
2023-08-11T09:54:18.263Z,52.10
2023-08-11T09:56:45.548Z,50.40
2023-08-11T09:59:22.075Z,52.50
2023-08-11T10:01:55.325Z,52.70
2023-08-11T10:04:34.593Z,53.50
2023-08-11T10:07:04.888Z,51.70
2023-08-11T10:09:34.872Z,52.50
2023-08-11T10:12:03.044Z,52.00
2023-08-11T10:14:30.874Z,52.00
2023-08-11T10:17:00.274Z,52.90
2023-08-11T10:19:28.156Z,51.50
2023-08-11T10:21:56.623Z,50.70
2023-08-11T10:24:25.826Z,50.30
2023-08-11T10:26:53.299Z,50.70
2023-08-11T10:29:22.381Z,51.00
2023-08-11T10:31:58.527Z,48.70
2023-08-11T10:34:26.789Z,49.60
2023-08-11T10:36:58.625Z,50.70
2023-08-11T10:39:28.384Z,52.50
2023-08-11T10:41:58.749Z,50.80
2023-08-11T10:44:30.539Z,49.60
2023-08-11T10:47:04.418Z,50.50
2023-08-11T10:49:36.110Z,51.20
2023-08-11T10:52:04.925Z,50.60
2023-08-11T10:54:36.202Z,52.00
2023-08-11T10:57:04.687Z,50.10
2023-08-11T10:59:34.067Z,50.20
2023-08-11T11:02:01.361Z,49.30
2023-08-11T11:04:31.116Z,49.60
2023-08-11T11:07:00.053Z,49.80
2023-08-11T11:09:31.447Z,49.80
2023-08-11T11:11:58.952Z,49.00
2023-08-11T11:14:28.502Z,50.10
2023-08-11T11:17:00.662Z,49.90
2023-08-11T11:19:28.806Z,50.90
2023-08-11T11:21:56.289Z,51.40
2023-08-11T11:24:23.628Z,48.70
2023-08-11T11:26:51.125Z,48.20
2023-08-11T11:29:25.083Z,47.30
2023-08-11T11:31:52.853Z,47.60
2023-08-11T11:34:20.774Z,49.10
2023-08-11T11:36:48.611Z,50.50
2023-08-11T11:39:16.248Z,50.50
2023-08-11T11:41:43.352Z,49.70
2023-08-11T11:44:10.469Z,49.60
2023-08-11T11:46:37.587Z,50.40
2023-08-11T11:49:15.820Z,51.30
2023-08-11T11:51:47.799Z,50.20
2023-08-11T11:54:14.878Z,51.20
2023-08-11T11:56:54.152Z,52.80
2023-08-11T11:59:30.170Z,50.30
2023-08-11T12:02:05.304Z,49.10
2023-08-11T12:04:33.363Z,50.20
2023-08-11T12:07:01.203Z,50.40
2023-08-11T12:09:30.114Z,51.90
2023-08-11T12:11:57.839Z,49.70
2023-08-11T12:14:28.687Z,48.40
2023-08-11T12:16:58.464Z,49.80
2023-08-11T12:19:25.742Z,48.40
2023-08-11T12:21:52.821Z,48.20
2023-08-11T12:24:20.640Z,47.90
2023-08-11T12:26:47.761Z,49.30
2023-08-11T12:29:14.972Z,48.40
2023-08-11T12:31:42.106Z,48.20
2023-08-11T12:34:09.221Z,48.60
2023-08-11T12:36:36.500Z,49.50
2023-08-11T12:39:04.664Z,50.70
2023-08-11T12:41:31.764Z,48.00
2023-08-11T12:43:58.905Z,48.40
2023-08-11T12:46:26.493Z,48.60
2023-08-11T12:48:53.666Z,49.60
2023-08-11T12:51:20.973Z,50.10
2023-08-11T12:53:48.064Z,48.30
2023-08-11T12:56:15.379Z,50.20
2023-08-11T12:58:44.121Z,48.60
2023-08-11T13:01:11.412Z,48.10
2023-08-11T13:03:38.613Z,48.20
2023-08-11T13:06:06.340Z,50.20
2023-08-11T13:08:33.597Z,49.50
2023-08-11T13:11:00.840Z,50.50
2023-08-11T13:13:27.865Z,47.70
2023-08-11T13:15:54.916Z,47.50
2023-08-11T13:19:14.605Z,49.80
2023-08-11T13:22:30.883Z,47.00
2023-08-11T13:24:57.992Z,47.60
2023-08-11T13:27:25.022Z,46.90
2023-08-11T13:29:52.155Z,46.70
2023-08-11T13:32:19.188Z,48.60
2023-08-11T13:34:46.361Z,49.40
2023-08-11T13:37:16.518Z,46.40
2023-08-11T13:39:44.970Z,47.90
2023-08-11T13:42:14.549Z,46.60
2023-08-11T13:44:44.881Z,47.20
2023-08-11T13:47:14.243Z,48.30
2023-08-11T13:49:41.293Z,48.40
2023-08-11T13:52:08.789Z,48.10
2023-08-11T13:54:36.174Z,47.30
2023-08-11T13:57:03.856Z,48.50
2023-08-11T13:59:31.230Z,50.40
2023-08-11T14:01:58.438Z,49.30
2023-08-11T14:04:25.844Z,47.30
2023-08-11T14:06:59.113Z,47.00
2023-08-11T14:09:30.481Z,47.70
2023-08-11T14:11:57.478Z,47.20
2023-08-11T14:14:24.839Z,47.50
2023-08-11T14:16:51.947Z,48.90
2023-08-11T14:19:19.006Z,48.00
2023-08-11T14:21:46.290Z,50.10
2023-08-11T14:24:13.333Z,48.10
2023-08-11T14:26:40.799Z,46.90
2023-08-11T14:29:08.087Z,48.10
2023-08-11T14:31:35.542Z,47.00
2023-08-11T14:34:04.669Z,48.60
2023-08-11T14:36:31.919Z,49.00
2023-08-11T14:39:00.636Z,48.60
2023-08-11T14:41:28.190Z,48.20
2023-08-11T14:43:55.244Z,47.40
2023-08-11T14:46:22.530Z,49.10
2023-08-11T14:48:50.056Z,48.20
2023-08-11T14:51:17.529Z,47.60
2023-08-11T14:53:44.587Z,48.00
2023-08-11T14:56:12.651Z,47.60
2023-08-11T14:58:39.707Z,49.30
2023-08-11T15:01:07.652Z,49.80
2023-08-11T15:03:34.847Z,49.60
2023-08-11T15:06:06.283Z,48.30
2023-08-11T15:08:34.766Z,48.90
2023-08-11T15:11:01.847Z,49.30
2023-08-11T15:13:29.548Z,49.60
2023-08-11T15:15:57.135Z,48.50
2023-08-11T15:18:25.564Z,49.00
2023-08-11T15:20:52.728Z,50.10
2023-08-11T15:23:20.035Z,49.40
2023-08-11T15:25:47.322Z,49.60
2023-08-11T15:28:14.353Z,49.50
2023-08-11T15:30:41.451Z,48.00
2023-08-11T15:33:18.101Z,47.10
2023-08-11T15:35:45.497Z,47.60
2023-08-11T15:38:13.183Z,48.80
2023-08-11T15:40:40.288Z,48.80
2023-08-11T15:43:07.339Z,49.00
2023-08-11T15:45:34.380Z,50.20
2023-08-11T15:48:01.514Z,51.20
2023-08-11T15:50:28.978Z,49.60
2023-08-11T15:52:56.182Z,48.50
2023-08-11T15:55:35.821Z,48.90
2023-08-11T15:58:04.560Z,47.50
2023-08-11T16:00:33.361Z,49.00
2023-08-11T16:03:03.740Z,49.50
2023-08-11T16:05:31.211Z,49.10
2023-08-11T16:07:58.381Z,48.80
2023-08-11T16:10:27.804Z,48.00
2023-08-11T16:12:54.950Z,49.20
2023-08-11T16:15:22.326Z,47.90
2023-08-11T16:17:50.834Z,48.40
2023-08-11T16:20:18.700Z,47.20
2023-08-11T16:22:45.697Z,47.00
2023-08-11T16:25:12.975Z,47.30
2023-08-11T16:27:41.245Z,48.80
2023-08-11T16:30:11.426Z,48.20
2023-08-11T16:32:38.841Z,48.70
2023-08-11T16:35:06.325Z,49.20
2023-08-11T16:37:33.551Z,50.30
2023-08-11T16:40:00.865Z,48.50
2023-08-11T16:42:28.896Z,48.40
2023-08-11T16:44:56.194Z,48.40
2023-08-11T16:47:23.270Z,49.30
2023-08-11T16:49:51.704Z,49.50
2023-08-11T16:52:19.053Z,49.90
2023-08-11T16:54:46.428Z,50.10
2023-08-11T16:57:14.622Z,51.10
2023-08-11T16:59:41.670Z,51.20
2023-08-11T17:02:09.005Z,50.10
2023-08-11T17:04:36.389Z,51.50
2023-08-11T17:07:04.279Z,51.20
2023-08-11T17:09:31.402Z,51.70
2023-08-11T17:11:58.736Z,51.40
2023-08-11T17:14:25.803Z,51.40
2023-08-11T17:16:52.920Z,50.80
2023-08-11T17:19:23.836Z,51.80
2023-08-11T17:21:51.094Z,52.40
2023-08-11T17:24:18.202Z,53.20
2023-08-11T17:26:45.337Z,53.80
2023-08-11T17:29:12.397Z,55.20
2023-08-11T17:31:39.515Z,56.20
2023-08-11T17:34:06.722Z,57.50
2023-08-11T17:36:33.841Z,58.40
2023-08-11T17:39:00.899Z,58.70
2023-08-11T17:41:28.139Z,59.10
2023-08-11T17:43:55.986Z,58.20
2023-08-11T17:46:23.273Z,58.30
2023-08-11T17:48:53.827Z,59.70
2023-08-11T17:51:22.547Z,60.30
2023-08-11T17:54:03.599Z,60.60
2023-08-11T17:56:37.090Z,60.80
2023-08-11T17:59:04.524Z,61.00
2023-08-11T18:01:32.208Z,61.30
2023-08-11T18:04:06.271Z,61.60
2023-08-11T18:06:36.151Z,62.00
2023-08-11T18:09:04.980Z,62.40
2023-08-11T18:11:33.628Z,63.00
2023-08-11T18:14:01.221Z,63.60
2023-08-11T18:16:29.044Z,63.80
2023-08-11T18:18:56.234Z,64.10
2023-08-11T18:21:25.850Z,64.60
2023-08-11T18:23:57.172Z,64.70
2023-08-11T18:26:24.438Z,65.10
2023-08-11T18:28:51.533Z,65.10
2023-08-11T18:31:18.639Z,65.40
2023-08-11T18:33:46.126Z,65.80
2023-08-11T18:36:13.234Z,66.00
2023-08-11T18:38:40.564Z,66.40
2023-08-11T18:41:07.577Z,66.40
2023-08-11T18:43:34.679Z,66.60
2023-08-11T18:46:05.054Z,66.60
2023-08-11T18:48:32.972Z,66.70
2023-08-11T18:51:00.275Z,66.80
2023-08-11T18:53:28.685Z,66.70
2023-08-11T18:55:55.854Z,66.80
2023-08-11T18:58:26.541Z,67.00
2023-08-11T19:00:53.682Z,66.90
2023-08-11T19:03:21.092Z,67.00
2023-08-11T19:05:48.239Z,66.80
2023-08-11T19:08:15.416Z,67.00
2023-08-11T19:10:42.629Z,67.40
2023-08-11T19:13:09.651Z,67.50
2023-08-11T19:15:36.813Z,67.70
2023-08-11T19:18:05.892Z,68.30
2023-08-11T19:20:33.141Z,68.70
2023-08-11T19:23:00.329Z,68.80
2023-08-11T19:25:27.672Z,69.30
2023-08-11T19:27:54.789Z,69.60
2023-08-11T19:30:22.362Z,69.70
2023-08-11T19:32:50.836Z,69.90
2023-08-11T19:35:18.127Z,70.00
2023-08-11T19:37:45.424Z,69.90
2023-08-11T19:40:12.978Z,70.20
2023-08-11T19:42:40.043Z,70.60
2023-08-11T19:45:07.751Z,71.10
2023-08-11T19:47:34.822Z,71.20
2023-08-11T19:50:01.979Z,71.40
2023-08-11T19:52:29.567Z,71.40
2023-08-11T19:54:56.593Z,71.70
2023-08-11T19:57:23.666Z,72.10
2023-08-11T19:59:50.945Z,72.50
2023-08-11T20:02:18.103Z,72.90
2023-08-11T20:04:45.266Z,72.70
2023-08-11T20:07:12.622Z,72.80
2023-08-11T20:09:39.943Z,72.90
2023-08-11T20:12:10.222Z,72.80
2023-08-11T20:14:37.320Z,72.90
2023-08-11T20:17:04.760Z,73.00
2023-08-11T20:19:31.864Z,73.00
2023-08-11T20:22:00.305Z,73.10
2023-08-11T20:24:27.392Z,73.70
2023-08-11T20:26:57.670Z,73.40
2023-08-11T20:29:24.999Z,73.60
2023-08-11T20:31:56.157Z,73.90
2023-08-11T20:34:24.472Z,74.40
2023-08-11T20:36:52.572Z,75.10
2023-08-11T20:39:23.136Z,75.80
2023-08-11T20:41:51.276Z,76.10
2023-08-11T20:44:18.515Z,76.50
2023-08-11T20:46:45.833Z,76.90
2023-08-11T20:49:12.915Z,76.90
2023-08-11T20:51:53.580Z,77.10
2023-08-11T20:54:20.739Z,77.80
2023-08-11T20:56:47.841Z,78.10
2023-08-11T20:59:14.945Z,78.30
2023-08-11T21:01:42.091Z,78.40
2023-08-11T21:04:12.212Z,78.20
2023-08-11T21:06:39.605Z,78.20
2023-08-11T21:09:06.667Z,78.30
2023-08-11T21:11:34.040Z,78.40
2023-08-11T21:14:08.092Z,78.60
2023-08-11T21:16:35.250Z,78.90
2023-08-11T21:19:02.550Z,79.00
2023-08-11T21:21:29.862Z,79.80
2023-08-11T21:23:57.040Z,79.30
2023-08-11T21:26:24.175Z,79.60
2023-08-11T21:28:51.774Z,80.00
2023-08-11T21:31:19.156Z,80.40
2023-08-11T21:33:59.018Z,80.80
2023-08-11T21:36:28.586Z,80.90
2023-08-11T21:38:57.493Z,81.20
2023-08-11T21:41:27.202Z,81.60
2023-08-11T21:43:54.618Z,81.80
2023-08-11T21:46:21.801Z,82.50
2023-08-11T21:49:10.466Z,82.70
2023-08-11T21:51:47.084Z,82.70
2023-08-11T21:54:14.476Z,83.00
2023-08-11T21:56:41.663Z,83.70
2023-08-11T21:59:08.923Z,84.30
2023-08-11T22:01:35.927Z,85.00
2023-08-11T22:04:03.073Z,85.70
2023-08-11T22:06:30.199Z,86.80
2023-08-11T22:08:57.264Z,88.10
2023-08-11T22:11:36.042Z,89.90
2023-08-11T22:14:05.382Z,89.80
2023-08-11T22:16:33.646Z,90.20
2023-08-11T22:19:01.757Z,90.20
2023-08-11T22:21:29.112Z,90.30
2023-08-11T22:23:59.287Z,90.40
2023-08-11T22:26:26.372Z,90.50
2023-08-11T22:28:53.774Z,90.70
2023-08-11T22:33:48.110Z,91.20
2023-08-11T22:36:15.318Z,91.50
2023-08-11T22:38:42.718Z,91.50
2023-08-11T22:41:09.794Z,91.70
2023-08-11T22:43:36.941Z,91.80
2023-08-11T22:46:04.196Z,92.00
2023-08-11T22:48:31.453Z,91.80
2023-08-11T22:50:58.538Z,92.00
2023-08-11T22:53:25.596Z,92.50
2023-08-11T22:55:53.094Z,93.20
2023-08-11T22:58:20.181Z,93.80
2023-08-11T23:00:47.328Z,94.50
2023-08-11T23:03:14.494Z,94.90
2023-08-11T23:05:41.748Z,95.00
2023-08-11T23:08:08.903Z,95.00
2023-08-11T23:10:36.073Z,95.20
2023-08-11T23:13:03.201Z,95.30
2023-08-11T23:15:30.369Z,95.20
2023-08-11T23:17:57.501Z,95.20
2023-08-11T23:20:24.637Z,95.50
2023-08-11T23:22:51.814Z,96.00
2023-08-11T23:25:19.000Z,96.20
2023-08-11T23:27:46.101Z,96.50
2023-08-11T23:30:13.510Z,96.70
2023-08-11T23:32:40.664Z,96.80
2023-08-11T23:35:08.139Z,97.10
2023-08-11T23:37:35.427Z,97.30
2023-08-11T23:40:02.569Z,97.50
2023-08-11T23:42:31.512Z,97.50
2023-08-11T23:44:58.606Z,97.30
2023-08-11T23:47:26.167Z,97.40
2023-08-11T23:49:53.502Z,97.30
2023-08-11T23:52:20.867Z,97.80
2023-08-11T23:54:53.155Z,98.00
2023-08-11T23:57:22.403Z,98.90
2023-08-11T23:59:49.619Z,98.90
